sensor_id;sensor_type;location;lat;lon;timestamp;pressure;altitude;pressure_sealevel;temperature;humidity
11712;BME280;5912;51.034;6.984;2023-03-16T00:01:13;56696.88;;;-142.13;57.48
11712;BME280;5912;51.034;6.984;2023-03-16T00:03:38;56644.81;;;-142.13;57.69
11712;BME280;5912;51.034;6.984;2023-03-16T00:06:03;56700.91;;;-142.13;57.30
11712;BME280;5912;51.034;6.984;2023-03-16T00:08:29;56696.88;;;-142.13;57.11
11712;BME280;5912;51.034;6.984;2023-03-16T00:10:54;56670.84;;;-142.13;57.33
11712;BME280;5912;51.034;6.984;2023-03-16T00:13:23;56702.91;;;-142.13;57.46
11712;BME280;5912;51.034;6.984;2023-03-16T00:18:19;56702.91;;;-142.13;57.41
11712;BME280;5912;51.034;6.984;2023-03-16T00:21:12;56724.94;;;-142.13;57.95
11712;BME280;5912;51.034;6.984;2023-03-16T00:23:38;56672.84;;;-142.13;57.92
11712;BME280;5912;51.034;6.984;2023-03-16T00:26:05;56690.88;;;-142.13;57.52
11712;BME280;5912;51.034;6.984;2023-03-16T00:28:32;56706.91;;;-142.13;58.17
11712;BME280;5912;51.034;6.984;2023-03-16T00:31:05;56720.94;;;-142.13;57.87
11712;BME280;5912;51.034;6.984;2023-03-16T00:33:31;56682.88;;;-142.13;58.25
11712;BME280;5912;51.034;6.984;2023-03-16T00:36:01;56690.88;;;-142.13;57.88
11712;BME280;5912;51.034;6.984;2023-03-16T00:38:31;56690.88;;;-142.13;57.91
11712;BME280;5912;51.034;6.984;2023-03-16T00:40:57;56686.88;;;-142.13;58.01
11712;BME280;5912;51.034;6.984;2023-03-16T00:43:22;56690.88;;;-142.13;58.07
11712;BME280;5912;51.034;6.984;2023-03-16T00:45:47;56692.88;;;-142.13;57.76
11712;BME280;5912;51.034;6.984;2023-03-16T00:48:13;56696.88;;;-142.13;57.82
11712;BME280;5912;51.034;6.984;2023-03-16T00:50:38;56712.91;;;-142.13;57.69
11712;BME280;5912;51.034;6.984;2023-03-16T00:53:04;56696.88;;;-142.13;57.51
11712;BME280;5912;51.034;6.984;2023-03-16T00:55:30;56720.94;;;-142.13;57.24
11712;BME280;5912;51.034;6.984;2023-03-16T00:57:56;56664.84;;;-142.13;57.02
11712;BME280;5912;51.034;6.984;2023-03-16T01:00:21;56692.88;;;-142.13;57.14
11712;BME280;5912;51.034;6.984;2023-03-16T01:02:49;56700.91;;;-142.13;56.85
11712;BME280;5912;51.034;6.984;2023-03-16T01:05:14;56726.94;;;-142.13;56.96
11712;BME280;5912;51.034;6.984;2023-03-16T01:07:40;56696.88;;;-142.13;57.08
11712;BME280;5912;51.034;6.984;2023-03-16T01:10:07;56696.88;;;-142.13;56.93
11712;BME280;5912;51.034;6.984;2023-03-16T01:12:33;56672.84;;;-142.13;57.03
11712;BME280;5912;51.034;6.984;2023-03-16T01:14:59;56712.91;;;-142.13;56.65
11712;BME280;5912;51.034;6.984;2023-03-16T01:17:24;56684.88;;;-142.13;56.79
11712;BME280;5912;51.034;6.984;2023-03-16T01:19:50;56688.88;;;-142.13;56.49
11712;BME280;5912;51.034;6.984;2023-03-16T01:22:16;56708.91;;;-142.13;56.52
11712;BME280;5912;51.034;6.984;2023-03-16T01:24:42;56654.81;;;-142.13;56.63
11712;BME280;5912;51.034;6.984;2023-03-16T01:27:11;56688.88;;;-142.13;56.16
11712;BME280;5912;51.034;6.984;2023-03-16T01:29:37;56670.84;;;-142.13;56.22
11712;BME280;5912;51.034;6.984;2023-03-16T01:32:04;56692.88;;;-142.13;56.05
11712;BME280;5912;51.034;6.984;2023-03-16T01:34:30;56684.88;;;-142.13;55.80
11712;BME280;5912;51.034;6.984;2023-03-16T01:36:56;56708.91;;;-142.13;55.71
11712;BME280;5912;51.034;6.984;2023-03-16T01:39:21;56712.91;;;-142.13;55.12
11712;BME280;5912;51.034;6.984;2023-03-16T01:41:47;56676.84;;;-142.13;55.06
11712;BME280;5912;51.034;6.984;2023-03-16T01:44:21;56668.84;;;-142.13;54.49
11712;BME280;5912;51.034;6.984;2023-03-16T01:46:48;56680.84;;;-142.13;54.60
11712;BME280;5912;51.034;6.984;2023-03-16T01:49:17;56680.84;;;-142.13;53.78
11712;BME280;5912;51.034;6.984;2023-03-16T01:51:48;56698.88;;;-142.13;53.94
11712;BME280;5912;51.034;6.984;2023-03-16T01:59:31;56696.88;;;-142.13;53.32
11712;BME280;5912;51.034;6.984;2023-03-16T02:01:57;56668.84;;;-142.13;52.97
11712;BME280;5912;51.034;6.984;2023-03-16T02:07:07;56692.88;;;-142.13;53.07
11712;BME280;5912;51.034;6.984;2023-03-16T02:09:36;56684.88;;;-142.13;52.89
11712;BME280;5912;51.034;6.984;2023-03-16T02:12:03;56676.84;;;-142.13;53.08
11712;BME280;5912;51.034;6.984;2023-03-16T02:14:29;56676.84;;;-142.13;53.29
11712;BME280;5912;51.034;6.984;2023-03-16T02:16:55;56680.84;;;-142.13;53.10
11712;BME280;5912;51.034;6.984;2023-03-16T02:22:23;56694.88;;;-142.13;53.20
11712;BME280;5912;51.034;6.984;2023-03-16T02:24:51;56672.84;;;-142.13;53.42
11712;BME280;5912;51.034;6.984;2023-03-16T02:27:37;56682.88;;;-142.13;53.11
11712;BME280;5912;51.034;6.984;2023-03-16T02:32:33;56668.84;;;-142.13;53.20
11712;BME280;5912;51.034;6.984;2023-03-16T02:35:01;56670.84;;;-142.13;53.07
11712;BME280;5912;51.034;6.984;2023-03-16T02:37:27;56656.81;;;-142.13;53.35
11712;BME280;5912;51.034;6.984;2023-03-16T02:39:53;56652.81;;;-142.13;52.89
11712;BME280;5912;51.034;6.984;2023-03-16T02:42:21;56652.81;;;-142.13;53.01
11712;BME280;5912;51.034;6.984;2023-03-16T02:44:52;56646.81;;;-142.13;52.89
11712;BME280;5912;51.034;6.984;2023-03-16T02:47:26;56696.88;;;-142.13;52.88
11712;BME280;5912;51.034;6.984;2023-03-16T02:49:52;56672.84;;;-142.13;53.27
11712;BME280;5912;51.034;6.984;2023-03-16T02:52:18;56680.84;;;-142.13;53.17
11712;BME280;5912;51.034;6.984;2023-03-16T02:54:43;56686.88;;;-142.13;53.08
11712;BME280;5912;51.034;6.984;2023-03-16T02:57:08;56662.81;;;-142.13;53.15
11712;BME280;5912;51.034;6.984;2023-03-16T02:59:34;56656.81;;;-142.13;53.30
11712;BME280;5912;51.034;6.984;2023-03-16T03:01:59;56680.84;;;-142.13;53.04
11712;BME280;5912;51.034;6.984;2023-03-16T03:04:25;56644.81;;;-142.13;52.89
11712;BME280;5912;51.034;6.984;2023-03-16T03:06:51;56652.81;;;-142.13;52.63
11712;BME280;5912;51.034;6.984;2023-03-16T03:09:17;56680.84;;;-142.13;52.49
11712;BME280;5912;51.034;6.984;2023-03-16T03:11:42;56702.91;;;-142.13;52.67
11712;BME280;5912;51.034;6.984;2023-03-16T03:14:08;56672.84;;;-142.13;52.35
11712;BME280;5912;51.034;6.984;2023-03-16T03:16:33;56656.81;;;-142.13;52.20
11712;BME280;5912;51.034;6.984;2023-03-16T03:18:59;56656.81;;;-142.13;51.66
11712;BME280;5912;51.034;6.984;2023-03-16T03:21:24;56666.84;;;-142.13;51.89
11712;BME280;5912;51.034;6.984;2023-03-16T03:23:49;56672.84;;;-142.13;52.04
11712;BME280;5912;51.034;6.984;2023-03-16T03:26:16;56694.88;;;-142.13;52.08
11712;BME280;5912;51.034;6.984;2023-03-16T03:28:42;56646.81;;;-142.13;51.99
11712;BME280;5912;51.034;6.984;2023-03-16T03:31:20;56652.81;;;-142.13;51.66
11712;BME280;5912;51.034;6.984;2023-03-16T03:33:45;56644.81;;;-142.13;51.41
11712;BME280;5912;51.034;6.984;2023-03-16T03:36:12;56658.81;;;-142.13;51.80
11712;BME280;5912;51.034;6.984;2023-03-16T03:38:37;56666.84;;;-142.13;51.72
11712;BME280;5912;51.034;6.984;2023-03-16T03:44:20;56664.84;;;-142.13;50.97
11712;BME280;5912;51.034;6.984;2023-03-16T03:46:46;56664.84;;;-142.13;51.19
11712;BME280;5912;51.034;6.984;2023-03-16T03:49:12;56654.81;;;-142.13;51.16
11712;BME280;5912;51.034;6.984;2023-03-16T03:51:38;56686.88;;;-142.13;50.63
11712;BME280;5912;51.034;6.984;2023-03-16T03:54:03;56656.81;;;-142.13;50.84
11712;BME280;5912;51.034;6.984;2023-03-16T03:56:28;56656.81;;;-142.13;51.20
11712;BME280;5912;51.034;6.984;2023-03-16T03:58:53;56640.78;;;-142.13;50.79
11712;BME280;5912;51.034;6.984;2023-03-16T04:01:19;56698.88;;;-142.13;51.17
11712;BME280;5912;51.034;6.984;2023-03-16T04:03:44;56676.84;;;-142.13;51.05
11712;BME280;5912;51.034;6.984;2023-03-16T04:06:09;56648.81;;;-142.13;50.89
11712;BME280;5912;51.034;6.984;2023-03-16T04:08:35;56646.81;;;-142.13;50.56
11712;BME280;5912;51.034;6.984;2023-03-16T04:11:00;56676.84;;;-142.13;51.14
11712;BME280;5912;51.034;6.984;2023-03-16T04:13:26;56662.81;;;-142.13;50.76
11712;BME280;5912;51.034;6.984;2023-03-16T04:16:01;56664.84;;;-142.13;50.84
11712;BME280;5912;51.034;6.984;2023-03-16T04:18:30;56644.81;;;-142.13;51.17
11712;BME280;5912;51.034;6.984;2023-03-16T04:21:06;56666.84;;;-142.13;51.27
11712;BME280;5912;51.034;6.984;2023-03-16T04:23:32;56648.81;;;-142.13;50.94
11712;BME280;5912;51.034;6.984;2023-03-16T04:25:58;56648.81;;;-142.13;51.28
11712;BME280;5912;51.034;6.984;2023-03-16T04:28:24;56684.88;;;-142.13;51.15
11712;BME280;5912;51.034;6.984;2023-03-16T04:30:51;56664.84;;;-142.13;50.93
11712;BME280;5912;51.034;6.984;2023-03-16T04:33:19;56841.13;;;-142.13;50.96
11712;BME280;5912;51.034;6.984;2023-03-16T04:35:44;56662.81;;;-142.13;51.11
11712;BME280;5912;51.034;6.984;2023-03-16T04:38:10;56652.81;;;-142.13;51.34
11712;BME280;5912;51.034;6.984;2023-03-16T04:40:36;56648.81;;;-142.13;51.22
11712;BME280;5912;51.034;6.984;2023-03-16T04:43:02;56648.81;;;-142.13;51.35
11712;BME280;5912;51.034;6.984;2023-03-16T04:45:27;56618.75;;;-142.13;51.85
11712;BME280;5912;51.034;6.984;2023-03-16T04:47:53;56660.81;;;-142.13;51.78
11712;BME280;5912;51.034;6.984;2023-03-16T04:50:18;56676.84;;;-142.13;51.61
11712;BME280;5912;51.034;6.984;2023-03-16T04:52:43;56666.84;;;-142.13;51.72
11712;BME280;5912;51.034;6.984;2023-03-16T04:55:09;56640.78;;;-142.13;51.48
11712;BME280;5912;51.034;6.984;2023-03-16T04:57:34;56672.84;;;-142.13;51.29
11712;BME280;5912;51.034;6.984;2023-03-16T05:00:00;56660.81;;;-142.13;51.32
11712;BME280;5912;51.034;6.984;2023-03-16T05:02:25;56656.81;;;-142.13;51.72
11712;BME280;5912;51.034;6.984;2023-03-16T05:04:50;56672.84;;;-142.13;51.48
11712;BME280;5912;51.034;6.984;2023-03-16T05:07:16;56676.84;;;-142.13;51.55
11712;BME280;5912;51.034;6.984;2023-03-16T05:09:41;56640.78;;;-142.13;51.93
11712;BME280;5912;51.034;6.984;2023-03-16T05:12:07;56644.81;;;-142.13;51.67
11712;BME280;5912;51.034;6.984;2023-03-16T05:14:32;56642.78;;;-142.13;51.51
11712;BME280;5912;51.034;6.984;2023-03-16T05:17:00;56632.78;;;-142.13;52.26
11712;BME280;5912;51.034;6.984;2023-03-16T05:19:28;56672.84;;;-142.13;51.96
11712;BME280;5912;51.034;6.984;2023-03-16T05:21:53;56656.81;;;-142.13;51.74
11712;BME280;5912;51.034;6.984;2023-03-16T05:24:18;56660.81;;;-142.13;52.08
11712;BME280;5912;51.034;6.984;2023-03-16T05:26:44;56674.84;;;-142.13;52.06
11712;BME280;5912;51.034;6.984;2023-03-16T05:29:09;56656.81;;;-142.13;52.08
11712;BME280;5912;51.034;6.984;2023-03-16T05:31:34;56668.84;;;-142.13;51.93
11712;BME280;5912;51.034;6.984;2023-03-16T05:34:01;56632.78;;;-142.13;51.72
11712;BME280;5912;51.034;6.984;2023-03-16T05:36:26;56634.78;;;-142.13;51.56
11712;BME280;5912;51.034;6.984;2023-03-16T05:38:52;56640.78;;;-142.13;51.85
11712;BME280;5912;51.034;6.984;2023-03-16T05:41:17;56668.84;;;-142.13;52.01
11712;BME280;5912;51.034;6.984;2023-03-16T05:43:43;56658.81;;;-142.13;52.00
11712;BME280;5912;51.034;6.984;2023-03-16T05:46:09;56672.84;;;-142.13;51.62
11712;BME280;5912;51.034;6.984;2023-03-16T05:48:34;56652.81;;;-142.13;51.34
11712;BME280;5912;51.034;6.984;2023-03-16T05:51:00;56644.81;;;-142.13;51.63
11712;BME280;5912;51.034;6.984;2023-03-16T05:53:26;56652.81;;;-142.13;51.52
11712;BME280;5912;51.034;6.984;2023-03-16T05:55:53;56664.84;;;-142.13;51.58
11712;BME280;5912;51.034;6.984;2023-03-16T05:58:18;56668.84;;;-142.13;51.51
11712;BME280;5912;51.034;6.984;2023-03-16T06:00:44;56628.78;;;-142.13;51.35
11712;BME280;5912;51.034;6.984;2023-03-16T06:03:09;56664.84;;;-142.13;51.37
11712;BME280;5912;51.034;6.984;2023-03-16T06:05:34;56690.88;;;-142.13;50.99
11712;BME280;5912;51.034;6.984;2023-03-16T06:07:59;56662.81;;;-142.13;51.71
11712;BME280;5912;51.034;6.984;2023-03-16T06:10:26;56688.88;;;-142.13;51.35
11712;BME280;5912;51.034;6.984;2023-03-16T06:12:51;56624.75;;;-142.13;50.79
11712;BME280;5912;51.034;6.984;2023-03-16T06:15:17;56656.81;;;-142.13;51.13
11712;BME280;5912;51.034;6.984;2023-03-16T06:17:42;56634.78;;;-142.13;50.91
11712;BME280;5912;51.034;6.984;2023-03-16T06:20:11;56662.81;;;-142.13;50.52
11712;BME280;5912;51.034;6.984;2023-03-16T06:22:38;56636.78;;;-142.13;50.83
11712;BME280;5912;51.034;6.984;2023-03-16T06:25:04;56618.75;;;-142.13;50.32
11712;BME280;5912;51.034;6.984;2023-03-16T06:27:29;56644.81;;;-142.13;50.16
11712;BME280;5912;51.034;6.984;2023-03-16T06:29:55;56628.78;;;-142.13;50.68
11712;BME280;5912;51.034;6.984;2023-03-16T06:32:20;56624.75;;;-142.13;50.38
11712;BME280;5912;51.034;6.984;2023-03-16T06:34:46;56616.75;;;-142.13;49.65
11712;BME280;5912;51.034;6.984;2023-03-16T06:37:12;56632.78;;;-142.13;49.86
11712;BME280;5912;51.034;6.984;2023-03-16T06:39:37;56624.75;;;-142.13;49.33
11712;BME280;5912;51.034;6.984;2023-03-16T06:42:03;56612.75;;;-142.13;48.81
11712;BME280;5912;51.034;6.984;2023-03-16T06:44:29;56630.78;;;-142.13;49.17
11712;BME280;5912;51.034;6.984;2023-03-16T06:46:55;56600.72;;;-142.13;49.02
11712;BME280;5912;51.034;6.984;2023-03-16T06:49:20;56624.75;;;-142.13;48.75
11712;BME280;5912;51.034;6.984;2023-03-16T06:51:46;56620.75;;;-142.13;48.95
11712;BME280;5912;51.034;6.984;2023-03-16T06:54:11;56630.78;;;-142.13;48.17
11712;BME280;5912;51.034;6.984;2023-03-16T06:56:36;56618.75;;;-142.13;48.45
11712;BME280;5912;51.034;6.984;2023-03-16T06:59:02;56628.78;;;-142.13;48.59
11712;BME280;5912;51.034;6.984;2023-03-16T07:01:27;56632.78;;;-142.13;48.28
11712;BME280;5912;51.034;6.984;2023-03-16T07:03:53;56584.69;;;-142.13;48.09
11712;BME280;5912;51.034;6.984;2023-03-16T07:06:19;56624.75;;;-142.13;47.76
11712;BME280;5912;51.034;6.984;2023-03-16T07:08:45;56624.75;;;-142.13;47.32
11712;BME280;5912;51.034;6.984;2023-03-16T07:11:11;56626.78;;;-142.13;47.15
11712;BME280;5912;51.034;6.984;2023-03-16T07:13:36;56594.72;;;-142.13;47.45
11712;BME280;5912;51.034;6.984;2023-03-16T07:16:02;56618.75;;;-142.13;46.94
11712;BME280;5912;51.034;6.984;2023-03-16T07:18:29;56580.69;;;-142.13;46.68
11712;BME280;5912;51.034;6.984;2023-03-16T07:20:56;56610.75;;;-142.13;46.54
11712;BME280;5912;51.034;6.984;2023-03-16T07:23:21;56524.59;;;-142.13;46.32
11712;BME280;5912;51.034;6.984;2023-03-16T07:25:46;56616.75;;;-142.13;46.15
11712;BME280;5912;51.034;6.984;2023-03-16T07:28:11;56596.72;;;-142.13;46.29
11712;BME280;5912;51.034;6.984;2023-03-16T07:30:37;56564.66;;;-142.13;46.39
11712;BME280;5912;51.034;6.984;2023-03-16T07:33:03;56801.06;;;-142.13;46.15
11712;BME280;5912;51.034;6.984;2023-03-16T07:35:29;56604.72;;;-142.13;45.95
11712;BME280;5912;51.034;6.984;2023-03-16T07:37:55;56590.72;;;-142.13;45.87
11712;BME280;5912;51.034;6.984;2023-03-16T07:40:20;56582.69;;;-142.13;45.70
11712;BME280;5912;51.034;6.984;2023-03-16T07:42:46;56572.69;;;-142.13;45.53
11712;BME280;5912;51.034;6.984;2023-03-16T07:45:11;56552.66;;;-142.13;45.31
11712;BME280;5912;51.034;6.984;2023-03-16T07:47:38;56580.69;;;-142.13;45.24
11712;BME280;5912;51.034;6.984;2023-03-16T07:50:04;56540.63;;;-142.13;44.84
11712;BME280;5912;51.034;6.984;2023-03-16T07:52:29;56564.66;;;-142.13;44.62
11712;BME280;5912;51.034;6.984;2023-03-16T07:54:54;56520.59;;;-142.13;44.29
11712;BME280;5912;51.034;6.984;2023-03-16T07:57:20;56534.63;;;-142.13;43.73
11712;BME280;5912;51.034;6.984;2023-03-16T07:59:46;56556.66;;;-142.13;43.78
11712;BME280;5912;51.034;6.984;2023-03-16T08:02:13;56542.63;;;-142.13;43.28
11712;BME280;5912;51.034;6.984;2023-03-16T08:04:39;56530.59;;;-142.13;43.00
11712;BME280;5912;51.034;6.984;2023-03-16T08:07:07;56544.63;;;-142.13;42.90
11712;BME280;5912;51.034;6.984;2023-03-16T08:09:32;56556.66;;;-142.13;43.13
11712;BME280;5912;51.034;6.984;2023-03-16T08:12:01;56494.56;;;-142.13;43.10
11712;BME280;5912;51.034;6.984;2023-03-16T08:14:26;56542.63;;;-142.13;42.65
11712;BME280;5912;51.034;6.984;2023-03-16T08:16:51;56540.63;;;-142.13;42.39
11712;BME280;5912;51.034;6.984;2023-03-16T08:19:18;56518.59;;;-142.13;42.21
11712;BME280;5912;51.034;6.984;2023-03-16T08:21:44;56520.59;;;-142.13;42.26
11712;BME280;5912;51.034;6.984;2023-03-16T08:24:09;56542.63;;;-142.13;42.28
11712;BME280;5912;51.034;6.984;2023-03-16T08:26:35;56532.63;;;-142.13;41.90
11712;BME280;5912;51.034;6.984;2023-03-16T08:29:00;56510.56;;;-142.13;41.75
11712;BME280;5912;51.034;6.984;2023-03-16T08:31:27;56532.63;;;-142.13;41.44
11712;BME280;5912;51.034;6.984;2023-03-16T08:33:53;56508.56;;;-142.13;40.90
11712;BME280;5912;51.034;6.984;2023-03-16T08:36:18;56512.59;;;-142.13;41.19
11712;BME280;5912;51.034;6.984;2023-03-16T08:38:45;56514.59;;;-142.13;41.52
11712;BME280;5912;51.034;6.984;2023-03-16T08:41:11;56510.56;;;-142.13;41.10
11712;BME280;5912;51.034;6.984;2023-03-16T08:43:38;56506.56;;;-142.13;40.37
11712;BME280;5912;51.034;6.984;2023-03-16T08:46:03;56488.53;;;-142.13;40.47
11712;BME280;5912;51.034;6.984;2023-03-16T08:48:30;56490.53;;;-142.13;39.96
11712;BME280;5912;51.034;6.984;2023-03-16T08:51:00;56486.53;;;-142.13;39.92
11712;BME280;5912;51.034;6.984;2023-03-16T08:53:26;56502.56;;;-142.13;40.21
11712;BME280;5912;51.034;6.984;2023-03-16T08:56:00;56476.53;;;-142.13;40.56
11712;BME280;5912;51.034;6.984;2023-03-16T08:58:25;56488.53;;;-142.13;40.11
11712;BME280;5912;51.034;6.984;2023-03-16T09:00:51;56478.53;;;-142.13;39.99
11712;BME280;5912;51.034;6.984;2023-03-16T09:03:16;56490.53;;;-142.13;40.34
11712;BME280;5912;51.034;6.984;2023-03-16T09:05:42;56484.53;;;-142.13;39.87
11712;BME280;5912;51.034;6.984;2023-03-16T09:08:07;56458.50;;;-142.13;39.59
11712;BME280;5912;51.034;6.984;2023-03-16T09:10:32;56490.53;;;-142.13;39.95
11712;BME280;5912;51.034;6.984;2023-03-16T09:12:58;56496.56;;;-142.13;40.52
11712;BME280;5912;51.034;6.984;2023-03-16T09:15:23;56494.56;;;-142.13;40.46
11712;BME280;5912;51.034;6.984;2023-03-16T09:17:48;56486.53;;;-142.13;40.04
11712;BME280;5912;51.034;6.984;2023-03-16T09:20:16;56490.53;;;-142.13;40.52
11712;BME280;5912;51.034;6.984;2023-03-16T09:22:42;56494.56;;;-142.13;40.71
11712;BME280;5912;51.034;6.984;2023-03-16T09:25:08;56496.56;;;-142.13;40.20
11712;BME280;5912;51.034;6.984;2023-03-16T09:27:35;56468.50;;;-142.13;40.43
11712;BME280;5912;51.034;6.984;2023-03-16T09:30:02;56488.53;;;-142.13;39.51
11712;BME280;5912;51.034;6.984;2023-03-16T09:32:29;56444.47;;;-142.13;39.18
11712;BME280;5912;51.034;6.984;2023-03-16T09:34:54;56676.84;;;-142.13;38.62
11712;BME280;5912;51.034;6.984;2023-03-16T09:37:21;56460.50;;;-142.13;38.33
11712;BME280;5912;51.034;6.984;2023-03-16T09:39:49;56452.47;;;-142.13;37.73
11712;BME280;5912;51.034;6.984;2023-03-16T09:45:11;56396.41;;;-142.13;37.09
11712;BME280;5912;51.034;6.984;2023-03-16T09:47:39;56412.41;;;-142.13;37.03
11712;BME280;5912;51.034;6.984;2023-03-16T09:50:09;56456.50;;;-142.13;36.54
11712;BME280;5912;51.034;6.984;2023-03-16T09:57:52;56430.44;;;-142.13;36.96
11712;BME280;5912;51.034;6.984;2023-03-16T10:00:24;56404.41;;;-142.13;36.83
11712;BME280;5912;51.034;6.984;2023-03-16T10:05:34;56402.41;;;-142.13;36.46
11712;BME280;5912;51.034;6.984;2023-03-16T10:08:23;56426.44;;;-142.13;36.66
11712;BME280;5912;51.034;6.984;2023-03-16T10:14:16;56440.47;;;-142.13;37.09
11712;BME280;5912;51.034;6.984;2023-03-16T10:16:48;56418.44;;;-142.13;36.95
11712;BME280;5912;51.034;6.984;2023-03-16T10:19:37;56440.47;;;-142.13;37.01
11712;BME280;5912;51.034;6.984;2023-03-16T10:22:28;56412.41;;;-142.13;37.01
11712;BME280;5912;51.034;6.984;2023-03-16T10:27:25;56434.44;;;-142.13;37.36
11712;BME280;5912;51.034;6.984;2023-03-16T10:29:52;56460.50;;;-142.13;37.26
11712;BME280;5912;51.034;6.984;2023-03-16T10:32:17;56442.47;;;-142.13;37.29
11712;BME280;5912;51.034;6.984;2023-03-16T10:34:47;56424.44;;;-142.13;36.92
11712;BME280;5912;51.034;6.984;2023-03-16T10:37:17;56420.44;;;-142.13;37.18
11712;BME280;5912;51.034;6.984;2023-03-16T10:39:42;56416.44;;;-142.13;36.80
11712;BME280;5912;51.034;6.984;2023-03-16T10:42:19;56448.47;;;-142.13;36.51
11712;BME280;5912;51.034;6.984;2023-03-16T10:44:45;56454.47;;;-142.13;36.43
11712;BME280;5912;51.034;6.984;2023-03-16T10:47:17;56420.44;;;-142.13;36.43
11712;BME280;5912;51.034;6.984;2023-03-16T10:49:44;56408.41;;;-142.13;36.03
11712;BME280;5912;51.034;6.984;2023-03-16T10:54:59;56406.41;;;-142.13;35.78
11712;BME280;5912;51.034;6.984;2023-03-16T10:57:39;56378.38;;;-142.13;35.15
11712;BME280;5912;51.034;6.984;2023-03-16T11:02:44;56340.31;;;-142.13;34.08
11712;BME280;5912;51.034;6.984;2023-03-16T11:05:12;56340.31;;;-142.13;33.83
11712;BME280;5912;51.034;6.984;2023-03-16T11:07:37;56360.34;;;-142.13;33.55
11712;BME280;5912;51.034;6.984;2023-03-16T11:10:16;56378.38;;;-142.13;33.81
11712;BME280;5912;51.034;6.984;2023-03-16T11:12:49;56364.34;;;-142.13;33.66
11712;BME280;5912;51.034;6.984;2023-03-16T11:15:15;56392.38;;;-142.13;33.95
11712;BME280;5912;51.034;6.984;2023-03-16T11:17:44;56390.38;;;-142.13;33.97
11712;BME280;5912;51.034;6.984;2023-03-16T11:20:15;56334.28;;;-142.13;34.07
11712;BME280;5912;51.034;6.984;2023-03-16T11:22:43;56356.31;;;-142.13;34.15
11712;BME280;5912;51.034;6.984;2023-03-16T11:28:10;56358.34;;;-142.13;32.81
11712;BME280;5912;51.034;6.984;2023-03-16T11:30:45;56276.19;;;-142.13;31.52
11712;BME280;5912;51.034;6.984;2023-03-16T11:33:14;56276.19;;;-142.13;30.61
11712;BME280;5912;51.034;6.984;2023-03-16T11:38:32;56260.19;;;-142.13;30.15
11712;BME280;5912;51.034;6.984;2023-03-16T11:41:03;56222.13;;;-142.13;29.91
11712;BME280;5912;51.034;6.984;2023-03-16T11:43:52;56218.09;;;-142.13;29.84
11712;BME280;5912;51.034;6.984;2023-03-16T11:46:24;56204.09;;;-142.13;29.74
11712;BME280;5912;51.034;6.984;2023-03-16T11:51:51;56230.13;;;-142.13;29.66
11712;BME280;5912;51.034;6.984;2023-03-16T11:57:37;56242.16;;;-142.13;29.54
11712;BME280;5912;51.034;6.984;2023-03-16T12:00:16;56252.16;;;-142.13;29.77
11712;BME280;5912;51.034;6.984;2023-03-16T12:05:28;56228.13;;;-142.13;29.84
11712;BME280;5912;51.034;6.984;2023-03-16T12:08:10;56240.16;;;-142.13;29.90
11712;BME280;5912;51.034;6.984;2023-03-16T12:16:22;56186.06;;;-142.13;28.42
11712;BME280;5912;51.034;6.984;2023-03-16T12:18:54;56206.09;;;-142.13;29.11
11712;BME280;5912;51.034;6.984;2023-03-16T12:21:34;56230.13;;;-142.13;29.15
11712;BME280;5912;51.034;6.984;2023-03-16T12:24:03;56256.16;;;-142.13;29.88
11712;BME280;5912;51.034;6.984;2023-03-16T12:26:35;56260.19;;;-142.13;30.33
11712;BME280;5912;51.034;6.984;2023-03-16T12:29:19;56260.19;;;-142.13;30.46
11712;BME280;5912;51.034;6.984;2023-03-16T12:41:03;56296.22;;;-142.13;31.57
11712;BME280;5912;51.034;6.984;2023-03-16T12:43:27;56322.28;;;-142.13;31.58
11712;BME280;5912;51.034;6.984;2023-03-16T12:46:07;56332.28;;;-142.13;31.49
11712;BME280;5912;51.034;6.984;2023-03-16T12:48:39;56316.25;;;-142.13;31.71
11712;BME280;5912;51.034;6.984;2023-03-16T12:51:07;56292.22;;;-142.13;31.26
11712;BME280;5912;51.034;6.984;2023-03-16T12:56:27;56296.22;;;-142.13;31.27
11712;BME280;5912;51.034;6.984;2023-03-16T12:58:58;56324.28;;;-142.13;31.51
11712;BME280;5912;51.034;6.984;2023-03-16T13:01:40;56316.25;;;-142.13;31.42
11712;BME280;5912;51.034;6.984;2023-03-16T13:04:16;56300.25;;;-142.13;31.36
11712;BME280;5912;51.034;6.984;2023-03-16T13:06:46;56304.25;;;-142.13;31.92
11712;BME280;5912;51.034;6.984;2023-03-16T13:09:18;56330.28;;;-142.13;31.71
11712;BME280;5912;51.034;6.984;2023-03-16T13:11:46;56304.25;;;-142.13;31.52
11712;BME280;5912;51.034;6.984;2023-03-16T13:17:05;56304.25;;;-142.13;31.09
11712;BME280;5912;51.034;6.984;2023-03-16T13:19:35;56300.25;;;-142.13;30.78
11712;BME280;5912;51.034;6.984;2023-03-16T13:27:27;56274.19;;;-142.13;30.68
11712;BME280;5912;51.034;6.984;2023-03-16T13:29:58;56276.19;;;-142.13;30.77
11712;BME280;5912;51.034;6.984;2023-03-16T13:32:29;56304.25;;;-142.13;30.52
11712;BME280;5912;51.034;6.984;2023-03-16T13:34:58;56276.19;;;-142.13;30.25
11712;BME280;5912;51.034;6.984;2023-03-16T13:37:27;56244.16;;;-142.13;29.68
11712;BME280;5912;51.034;6.984;2023-03-16T13:39:55;56264.19;;;-142.13;29.56
11712;BME280;5912;51.034;6.984;2023-03-16T13:42:23;56230.13;;;-142.13;29.68
11712;BME280;5912;51.034;6.984;2023-03-16T13:44:54;56250.16;;;-142.13;29.15
11712;BME280;5912;51.034;6.984;2023-03-16T13:47:47;56220.13;;;-142.13;28.68
11712;BME280;5912;51.034;6.984;2023-03-16T13:50:14;56190.06;;;-142.13;28.10
11712;BME280;5912;51.034;6.984;2023-03-16T13:52:40;56200.09;;;-142.13;27.97
11712;BME280;5912;51.034;6.984;2023-03-16T13:55:16;56182.06;;;-142.13;28.04
11712;BME280;5912;51.034;6.984;2023-03-16T13:57:43;56170.03;;;-142.13;27.81
11712;BME280;5912;51.034;6.984;2023-03-16T14:00:16;56178.03;;;-142.13;27.53
11712;BME280;5912;51.034;6.984;2023-03-16T14:02:45;56172.03;;;-142.13;27.45
11712;BME280;5912;51.034;6.984;2023-03-16T14:05:20;56174.03;;;-142.13;27.68
11712;BME280;5912;51.034;6.984;2023-03-16T14:07:47;56162.03;;;-142.13;27.43
11712;BME280;5912;51.034;6.984;2023-03-16T14:10:13;56160.03;;;-142.13;27.27
11712;BME280;5912;51.034;6.984;2023-03-16T14:12:55;56192.06;;;-142.13;27.38
11712;BME280;5912;51.034;6.984;2023-03-16T14:15:25;56168.03;;;-142.13;27.55